sensor_id;sensor_type;location;lat;lon;timestamp;temperature;humidity
13186;DHT22;6658;53.080;7.428;2023-03-08T00:00:59;-0.70;99.90
13186;DHT22;6658;53.080;7.428;2023-03-08T00:03:24;-0.70;99.90
13186;DHT22;6658;53.080;7.428;2023-03-08T00:05:50;-0.70;99.90
13186;DHT22;6658;53.080;7.428;2023-03-08T00:08:17;-0.70;99.90
13186;DHT22;6658;53.080;7.428;2023-03-08T00:10:43;-0.70;99.90
13186;DHT22;6658;53.080;7.428;2023-03-08T00:13:09;-0.70;99.90
13186;DHT22;6658;53.080;7.428;2023-03-08T00:15:38;-0.70;99.90
13186;DHT22;6658;53.080;7.428;2023-03-08T00:18:05;-0.70;99.90
13186;DHT22;6658;53.080;7.428;2023-03-08T00:20:31;-0.60;99.90
13186;DHT22;6658;53.080;7.428;2023-03-08T00:22:57;-0.70;99.90
13186;DHT22;6658;53.080;7.428;2023-03-08T00:25:23;-0.70;99.90
13186;DHT22;6658;53.080;7.428;2023-03-08T00:27:48;-0.50;99.90
13186;DHT22;6658;53.080;7.428;2023-03-08T00:30:15;-0.70;99.90
13186;DHT22;6658;53.080;7.428;2023-03-08T00:32:40;-0.70;99.90
13186;DHT22;6658;53.080;7.428;2023-03-08T00:35:07;-0.70;99.90
13186;DHT22;6658;53.080;7.428;2023-03-08T00:37:32;-0.80;99.90
13186;DHT22;6658;53.080;7.428;2023-03-08T00:39:58;-0.80;99.90
13186;DHT22;6658;53.080;7.428;2023-03-08T00:42:24;-0.80;99.90
13186;DHT22;6658;53.080;7.428;2023-03-08T00:44:49;-0.90;99.90
13186;DHT22;6658;53.080;7.428;2023-03-08T00:47:16;-0.80;99.90
13186;DHT22;6658;53.080;7.428;2023-03-08T00:49:42;-0.90;99.90
13186;DHT22;6658;53.080;7.428;2023-03-08T00:52:09;-0.90;99.90
13186;DHT22;6658;53.080;7.428;2023-03-08T00:54:35;-0.80;99.90
13186;DHT22;6658;53.080;7.428;2023-03-08T00:57:00;-0.90;99.90
13186;DHT22;6658;53.080;7.428;2023-03-08T00:59:26;-0.90;99.90
13186;DHT22;6658;53.080;7.428;2023-03-08T01:01:52;-0.90;99.90
13186;DHT22;6658;53.080;7.428;2023-03-08T01:04:18;-0.90;99.90
13186;DHT22;6658;53.080;7.428;2023-03-08T01:06:44;-0.90;99.90
13186;DHT22;6658;53.080;7.428;2023-03-08T01:09:10;-0.90;99.90
13186;DHT22;6658;53.080;7.428;2023-03-08T01:11:37;-0.80;99.90
13186;DHT22;6658;53.080;7.428;2023-03-08T01:14:04;-0.90;99.90
13186;DHT22;6658;53.080;7.428;2023-03-08T01:16:32;-0.90;99.90
13186;DHT22;6658;53.080;7.428;2023-03-08T01:18:59;-0.90;99.90
13186;DHT22;6658;53.080;7.428;2023-03-08T01:21:27;-0.80;99.90
13186;DHT22;6658;53.080;7.428;2023-03-08T01:23:54;-0.90;99.90
13186;DHT22;6658;53.080;7.428;2023-03-08T01:26:21;-0.80;99.90
13186;DHT22;6658;53.080;7.428;2023-03-08T01:28:48;-0.80;99.90
13186;DHT22;6658;53.080;7.428;2023-03-08T01:31:22;-0.80;99.90
13186;DHT22;6658;53.080;7.428;2023-03-08T01:33:48;-0.80;99.90
13186;DHT22;6658;53.080;7.428;2023-03-08T01:36:17;-0.80;99.90
13186;DHT22;6658;53.080;7.428;2023-03-08T01:38:43;-0.80;99.90
13186;DHT22;6658;53.080;7.428;2023-03-08T01:41:24;-0.70;99.90
13186;DHT22;6658;53.080;7.428;2023-03-08T01:43:51;-0.70;99.90
13186;DHT22;6658;53.080;7.428;2023-03-08T01:46:28;-0.70;99.90
13186;DHT22;6658;53.080;7.428;2023-03-08T01:51:42;-0.80;99.90
13186;DHT22;6658;53.080;7.428;2023-03-08T01:54:32;-0.80;99.90
13186;DHT22;6658;53.080;7.428;2023-03-08T01:57:10;-0.80;99.90
13186;DHT22;6658;53.080;7.428;2023-03-08T01:59:40;-0.80;99.90
13186;DHT22;6658;53.080;7.428;2023-03-08T02:02:06;-0.80;99.90
13186;DHT22;6658;53.080;7.428;2023-03-08T02:04:32;-0.80;99.90
13186;DHT22;6658;53.080;7.428;2023-03-08T02:06:57;-0.80;99.90
13186;DHT22;6658;53.080;7.428;2023-03-08T02:09:23;-0.80;99.90
13186;DHT22;6658;53.080;7.428;2023-03-08T02:11:49;-0.80;99.90
13186;DHT22;6658;53.080;7.428;2023-03-08T02:14:16;-0.80;99.90
13186;DHT22;6658;53.080;7.428;2023-03-08T02:16:42;-0.80;99.90
13186;DHT22;6658;53.080;7.428;2023-03-08T02:19:19;-0.90;99.90
13186;DHT22;6658;53.080;7.428;2023-03-08T02:21:46;-0.80;99.90
13186;DHT22;6658;53.080;7.428;2023-03-08T02:24:22;-0.90;99.90
13186;DHT22;6658;53.080;7.428;2023-03-08T02:26:51;-0.90;99.90
13186;DHT22;6658;53.080;7.428;2023-03-08T02:29:19;-0.90;99.90
13186;DHT22;6658;53.080;7.428;2023-03-08T02:31:44;-0.90;99.90
13186;DHT22;6658;53.080;7.428;2023-03-08T02:34:10;-1.00;99.90
13186;DHT22;6658;53.080;7.428;2023-03-08T02:36:36;-0.90;99.90
13186;DHT22;6658;53.080;7.428;2023-03-08T02:39:01;-1.00;99.90
13186;DHT22;6658;53.080;7.428;2023-03-08T02:41:27;-1.10;99.90
13186;DHT22;6658;53.080;7.428;2023-03-08T02:43:53;-1.00;99.90
13186;DHT22;6658;53.080;7.428;2023-03-08T02:46:18;-1.00;99.90
13186;DHT22;6658;53.080;7.428;2023-03-08T02:48:44;-1.00;99.90
13186;DHT22;6658;53.080;7.428;2023-03-08T02:51:11;-1.00;99.90
13186;DHT22;6658;53.080;7.428;2023-03-08T02:53:36;-1.10;99.90
13186;DHT22;6658;53.080;7.428;2023-03-08T02:56:02;-1.10;99.90
13186;DHT22;6658;53.080;7.428;2023-03-08T02:58:28;-1.20;99.90
13186;DHT22;6658;53.080;7.428;2023-03-08T03:00:53;-1.20;99.90
13186;DHT22;6658;53.080;7.428;2023-03-08T03:03:19;-1.20;99.90
13186;DHT22;6658;53.080;7.428;2023-03-08T03:05:45;-1.20;99.90
13186;DHT22;6658;53.080;7.428;2023-03-08T03:08:11;-1.20;99.90
13186;DHT22;6658;53.080;7.428;2023-03-08T03:10:37;-1.30;99.90
13186;DHT22;6658;53.080;7.428;2023-03-08T03:13:04;-1.30;99.90
13186;DHT22;6658;53.080;7.428;2023-03-08T03:15:31;-1.30;99.90
13186;DHT22;6658;53.080;7.428;2023-03-08T03:17:57;-1.30;99.90
13186;DHT22;6658;53.080;7.428;2023-03-08T03:20:23;-1.30;99.90
13186;DHT22;6658;53.080;7.428;2023-03-08T03:22:49;-1.30;99.90
13186;DHT22;6658;53.080;7.428;2023-03-08T03:25:14;-1.40;99.90
13186;DHT22;6658;53.080;7.428;2023-03-08T03:27:40;-1.40;99.90
13186;DHT22;6658;53.080;7.428;2023-03-08T03:30:07;-1.40;99.90
13186;DHT22;6658;53.080;7.428;2023-03-08T03:32:33;-1.40;99.90
13186;DHT22;6658;53.080;7.428;2023-03-08T03:34:59;-1.50;99.90
13186;DHT22;6658;53.080;7.428;2023-03-08T03:37:25;-1.50;99.90
13186;DHT22;6658;53.080;7.428;2023-03-08T03:39:51;-1.40;99.90
13186;DHT22;6658;53.080;7.428;2023-03-08T03:42:17;-1.40;99.90
13186;DHT22;6658;53.080;7.428;2023-03-08T03:44:43;-1.40;99.90
13186;DHT22;6658;53.080;7.428;2023-03-08T03:47:09;-1.30;99.90
13186;DHT22;6658;53.080;7.428;2023-03-08T03:49:35;-1.40;99.90
13186;DHT22;6658;53.080;7.428;2023-03-08T03:52:00;-1.30;99.90
13186;DHT22;6658;53.080;7.428;2023-03-08T03:54:26;-1.40;99.90
13186;DHT22;6658;53.080;7.428;2023-03-08T03:56:52;-1.30;99.90
13186;DHT22;6658;53.080;7.428;2023-03-08T03:59:22;-1.40;99.90
13186;DHT22;6658;53.080;7.428;2023-03-08T04:01:48;-1.30;99.90
13186;DHT22;6658;53.080;7.428;2023-03-08T04:04:13;-1.30;99.90
13186;DHT22;6658;53.080;7.428;2023-03-08T04:06:39;-1.30;99.90
13186;DHT22;6658;53.080;7.428;2023-03-08T04:09:09;-1.30;99.90
13186;DHT22;6658;53.080;7.428;2023-03-08T04:11:38;-1.30;99.90
13186;DHT22;6658;53.080;7.428;2023-03-08T04:14:04;-1.30;99.90
13186;DHT22;6658;53.080;7.428;2023-03-08T04:16:32;-1.30;99.90
13186;DHT22;6658;53.080;7.428;2023-03-08T04:19:00;-1.20;99.90
13186;DHT22;6658;53.080;7.428;2023-03-08T04:21:27;-1.20;99.90
13186;DHT22;6658;53.080;7.428;2023-03-08T04:23:53;-1.10;99.90
13186;DHT22;6658;53.080;7.428;2023-03-08T04:26:19;-1.20;99.90
13186;DHT22;6658;53.080;7.428;2023-03-08T04:28:45;-1.20;99.90
13186;DHT22;6658;53.080;7.428;2023-03-08T04:31:16;-1.40;99.90
13186;DHT22;6658;53.080;7.428;2023-03-08T04:33:42;-1.30;99.90
13186;DHT22;6658;53.080;7.428;2023-03-08T04:36:09;-1.20;99.90
13186;DHT22;6658;53.080;7.428;2023-03-08T04:38:34;-1.30;99.90
13186;DHT22;6658;53.080;7.428;2023-03-08T04:41:00;-1.40;99.90
13186;DHT22;6658;53.080;7.428;2023-03-08T04:43:27;-1.30;99.90
13186;DHT22;6658;53.080;7.428;2023-03-08T04:45:53;-1.30;99.90
13186;DHT22;6658;53.080;7.428;2023-03-08T04:48:18;-1.40;99.90
13186;DHT22;6658;53.080;7.428;2023-03-08T04:50:50;-1.40;99.90
13186;DHT22;6658;53.080;7.428;2023-03-08T04:53:16;-1.40;99.90
13186;DHT22;6658;53.080;7.428;2023-03-08T04:55:42;-1.40;99.90
13186;DHT22;6658;53.080;7.428;2023-03-08T04:58:07;-1.30;99.90
13186;DHT22;6658;53.080;7.428;2023-03-08T05:00:33;-1.30;99.90
13186;DHT22;6658;53.080;7.428;2023-03-08T05:02:59;-1.30;99.90
13186;DHT22;6658;53.080;7.428;2023-03-08T05:05:24;-1.30;99.90
13186;DHT22;6658;53.080;7.428;2023-03-08T05:07:50;-1.30;99.90
13186;DHT22;6658;53.080;7.428;2023-03-08T05:10:16;-1.30;99.90
13186;DHT22;6658;53.080;7.428;2023-03-08T05:12:41;-1.30;99.90
13186;DHT22;6658;53.080;7.428;2023-03-08T05:15:07;-1.30;99.90
13186;DHT22;6658;53.080;7.428;2023-03-08T05:17:33;-1.20;99.90
13186;DHT22;6658;53.080;7.428;2023-03-08T05:19:59;-1.20;99.90
13186;DHT22;6658;53.080;7.428;2023-03-08T05:22:24;-1.20;99.90
13186;DHT22;6658;53.080;7.428;2023-03-08T05:24:50;-1.20;99.90
13186;DHT22;6658;53.080;7.428;2023-03-08T05:27:17;-1.20;99.90
13186;DHT22;6658;53.080;7.428;2023-03-08T05:29:42;-1.10;99.90
13186;DHT22;6658;53.080;7.428;2023-03-08T05:32:12;-1.10;99.90
13186;DHT22;6658;53.080;7.428;2023-03-08T05:34:37;-1.10;99.90
13186;DHT22;6658;53.080;7.428;2023-03-08T05:37:03;-1.10;99.90
13186;DHT22;6658;53.080;7.428;2023-03-08T05:39:29;-1.10;99.90
13186;DHT22;6658;53.080;7.428;2023-03-08T05:41:55;-1.00;99.90
13186;DHT22;6658;53.080;7.428;2023-03-08T05:44:21;-1.00;99.90
13186;DHT22;6658;53.080;7.428;2023-03-08T05:46:50;-1.00;99.90
13186;DHT22;6658;53.080;7.428;2023-03-08T05:49:16;-1.00;99.90
13186;DHT22;6658;53.080;7.428;2023-03-08T05:51:41;-1.00;99.90
13186;DHT22;6658;53.080;7.428;2023-03-08T05:54:07;-1.10;99.90
13186;DHT22;6658;53.080;7.428;2023-03-08T05:56:33;-1.00;99.90
13186;DHT22;6658;53.080;7.428;2023-03-08T05:58:58;-1.10;99.90
13186;DHT22;6658;53.080;7.428;2023-03-08T06:01:26;-1.00;99.90
13186;DHT22;6658;53.080;7.428;2023-03-08T06:03:54;-1.10;99.90
13186;DHT22;6658;53.080;7.428;2023-03-08T06:06:22;-1.00;99.90
13186;DHT22;6658;53.080;7.428;2023-03-08T06:08:48;-1.00;99.90
13186;DHT22;6658;53.080;7.428;2023-03-08T06:11:15;-1.00;99.90
13186;DHT22;6658;53.080;7.428;2023-03-08T06:13:40;-1.00;99.90
13186;DHT22;6658;53.080;7.428;2023-03-08T06:16:07;-1.00;99.90
13186;DHT22;6658;53.080;7.428;2023-03-08T06:18:35;-1.00;99.90
13186;DHT22;6658;53.080;7.428;2023-03-08T06:21:13;-1.00;99.90
13186;DHT22;6658;53.080;7.428;2023-03-08T06:23:40;-0.90;99.90
13186;DHT22;6658;53.080;7.428;2023-03-08T06:26:06;-1.00;99.90
13186;DHT22;6658;53.080;7.428;2023-03-08T06:28:33;-0.90;99.90
13186;DHT22;6658;53.080;7.428;2023-03-08T06:30:59;-0.90;99.90
13186;DHT22;6658;53.080;7.428;2023-03-08T06:33:27;-0.90;99.90
13186;DHT22;6658;53.080;7.428;2023-03-08T06:36:11;-0.90;99.90
13186;DHT22;6658;53.080;7.428;2023-03-08T06:38:39;-0.90;99.90
13186;DHT22;6658;53.080;7.428;2023-03-08T06:41:05;-0.80;99.90
13186;DHT22;6658;53.080;7.428;2023-03-08T06:43:31;-0.80;99.90
13186;DHT22;6658;53.080;7.428;2023-03-08T06:45:57;-0.80;99.90
13186;DHT22;6658;53.080;7.428;2023-03-08T06:48:23;-0.80;99.90
13186;DHT22;6658;53.080;7.428;2023-03-08T06:50:49;-0.70;99.90
13186;DHT22;6658;53.080;7.428;2023-03-08T06:53:15;-0.60;99.90
13186;DHT22;6658;53.080;7.428;2023-03-08T06:55:41;-0.60;99.90
13186;DHT22;6658;53.080;7.428;2023-03-08T06:58:07;-0.50;99.90
13186;DHT22;6658;53.080;7.428;2023-03-08T07:00:33;-0.50;99.90
13186;DHT22;6658;53.080;7.428;2023-03-08T07:02:59;-0.40;99.90
13186;DHT22;6658;53.080;7.428;2023-03-08T07:05:25;-0.30;99.90
13186;DHT22;6658;53.080;7.428;2023-03-08T07:07:51;-0.20;99.90
13186;DHT22;6658;53.080;7.428;2023-03-08T07:10:18;-0.10;99.90
13186;DHT22;6658;53.080;7.428;2023-03-08T07:12:46;-0.10;99.90
13186;DHT22;6658;53.080;7.428;2023-03-08T07:15:15;0.00;99.90
13186;DHT22;6658;53.080;7.428;2023-03-08T07:17:45;0.10;99.90
13186;DHT22;6658;53.080;7.428;2023-03-08T07:20:13;0.20;99.90
13186;DHT22;6658;53.080;7.428;2023-03-08T07:22:43;0.30;99.90
13186;DHT22;6658;53.080;7.428;2023-03-08T07:25:17;0.30;99.90
13186;DHT22;6658;53.080;7.428;2023-03-08T07:27:44;0.40;99.90
13186;DHT22;6658;53.080;7.428;2023-03-08T07:30:11;0.40;99.90
13186;DHT22;6658;53.080;7.428;2023-03-08T07:32:38;0.50;99.90
13186;DHT22;6658;53.080;7.428;2023-03-08T07:35:06;0.60;99.90
13186;DHT22;6658;53.080;7.428;2023-03-08T07:37:32;0.60;99.90
13186;DHT22;6658;53.080;7.428;2023-03-08T07:39:57;0.70;99.90
13186;DHT22;6658;53.080;7.428;2023-03-08T07:42:23;0.70;99.90
13186;DHT22;6658;53.080;7.428;2023-03-08T07:44:49;0.80;99.90
13186;DHT22;6658;53.080;7.428;2023-03-08T07:47:15;0.90;99.90
13186;DHT22;6658;53.080;7.428;2023-03-08T07:49:40;1.00;99.90
13186;DHT22;6658;53.080;7.428;2023-03-08T07:52:06;1.10;99.90
13186;DHT22;6658;53.080;7.428;2023-03-08T07:54:32;1.20;99.90
13186;DHT22;6658;53.080;7.428;2023-03-08T07:56:57;1.30;99.90
13186;DHT22;6658;53.080;7.428;2023-03-08T07:59:23;1.30;99.90
13186;DHT22;6658;53.080;7.428;2023-03-08T08:01:49;1.50;99.90
13186;DHT22;6658;53.080;7.428;2023-03-08T08:04:15;1.50;99.90
13186;DHT22;6658;53.080;7.428;2023-03-08T08:06:41;1.60;99.90
13186;DHT22;6658;53.080;7.428;2023-03-08T08:09:08;1.70;99.90
13186;DHT22;6658;53.080;7.428;2023-03-08T08:11:34;1.80;99.90
13186;DHT22;6658;53.080;7.428;2023-03-08T08:14:00;1.80;99.90
13186;DHT22;6658;53.080;7.428;2023-03-08T08:16:26;1.90;99.90
13186;DHT22;6658;53.080;7.428;2023-03-08T08:18:52;2.00;99.90
13186;DHT22;6658;53.080;7.428;2023-03-08T08:21:19;2.10;99.90
13186;DHT22;6658;53.080;7.428;2023-03-08T08:23:45;2.20;99.90
13186;DHT22;6658;53.080;7.428;2023-03-08T08:26:17;2.40;99.90
13186;DHT22;6658;53.080;7.428;2023-03-08T08:28:44;2.50;99.90
13186;DHT22;6658;53.080;7.428;2023-03-08T08:31:13;2.40;99.90
13186;DHT22;6658;53.080;7.428;2023-03-08T08:33:39;2.50;99.90
13186;DHT22;6658;53.080;7.428;2023-03-08T08:36:07;2.60;99.90
13186;DHT22;6658;53.080;7.428;2023-03-08T08:38:33;2.60;99.90
13186;DHT22;6658;53.080;7.428;2023-03-08T08:41:01;2.80;99.90
13186;DHT22;6658;53.080;7.428;2023-03-08T08:43:27;2.90;99.90
13186;DHT22;6658;53.080;7.428;2023-03-08T08:45:56;3.00;99.90
13186;DHT22;6658;53.080;7.428;2023-03-08T08:48:22;3.20;99.90
13186;DHT22;6658;53.080;7.428;2023-03-08T08:50:48;3.30;99.90
13186;DHT22;6658;53.080;7.428;2023-03-08T08:53:13;3.50;99.90
13186;DHT22;6658;53.080;7.428;2023-03-08T08:55:39;3.60;99.90
13186;DHT22;6658;53.080;7.428;2023-03-08T08:58:05;3.70;99.90
13186;DHT22;6658;53.080;7.428;2023-03-08T09:00:32;3.80;99.90
13186;DHT22;6658;53.080;7.428;2023-03-08T09:02:58;3.50;99.90
13186;DHT22;6658;53.080;7.428;2023-03-08T09:05:24;3.50;99.90
13186;DHT22;6658;53.080;7.428;2023-03-08T09:07:52;3.60;99.90
13186;DHT22;6658;53.080;7.428;2023-03-08T09:10:19;3.60;99.90
13186;DHT22;6658;53.080;7.428;2023-03-08T09:12:45;3.70;99.90
13186;DHT22;6658;53.080;7.428;2023-03-08T09:15:11;3.80;99.90
13186;DHT22;6658;53.080;7.428;2023-03-08T09:17:37;4.00;99.90
13186;DHT22;6658;53.080;7.428;2023-03-08T09:20:04;4.20;99.90
13186;DHT22;6658;53.080;7.428;2023-03-08T09:22:31;4.40;99.90
13186;DHT22;6658;53.080;7.428;2023-03-08T09:24:57;4.50;99.90
13186;DHT22;6658;53.080;7.428;2023-03-08T09:27:23;4.70;99.90
13186;DHT22;6658;53.080;7.428;2023-03-08T09:29:48;4.70;99.90
13186;DHT22;6658;53.080;7.428;2023-03-08T09:32:14;4.70;99.90
13186;DHT22;6658;53.080;7.428;2023-03-08T09:34:40;4.70;99.90
13186;DHT22;6658;53.080;7.428;2023-03-08T09:37:05;4.80;99.90
13186;DHT22;6658;53.080;7.428;2023-03-08T09:39:32;4.30;99.90
13186;DHT22;6658;53.080;7.428;2023-03-08T09:41:59;4.10;99.90
13186;DHT22;6658;53.080;7.428;2023-03-08T09:52:41;3.70;99.90
13186;DHT22;6658;53.080;7.428;2023-03-08T09:55:31;3.80;99.90
13186;DHT22;6658;53.080;7.428;2023-03-08T09:58:21;4.00;99.90
13186;DHT22;6658;53.080;7.428;2023-03-08T10:00:50;4.10;99.90
13186;DHT22;6658;53.080;7.428;2023-03-08T10:06:32;3.70;99.90
13186;DHT22;6658;53.080;7.428;2023-03-08T10:12:02;3.40;99.90
13186;DHT22;6658;53.080;7.428;2023-03-08T10:14:41;3.40;99.90
13186;DHT22;6658;53.080;7.428;2023-03-08T10:17:20;3.50;99.90
13186;DHT22;6658;53.080;7.428;2023-03-08T10:20:18;3.50;99.90
13186;DHT22;6658;53.080;7.428;2023-03-08T10:22:46;3.50;99.90
13186;DHT22;6658;53.080;7.428;2023-03-08T10:25:22;3.70;99.90
13186;DHT22;6658;53.080;7.428;2023-03-08T10:27:51;3.70;99.90
13186;DHT22;6658;53.080;7.428;2023-03-08T10:30:20;3.50;99.90
13186;DHT22;6658;53.080;7.428;2023-03-08T10:32:49;3.70;99.90
13186;DHT22;6658;53.080;7.428;2023-03-08T10:35:16;3.80;99.90
13186;DHT22;6658;53.080;7.428;2023-03-08T10:37:42;3.80;99.90
13186;DHT22;6658;53.080;7.428;2023-03-08T10:40:17;3.80;99.90
13186;DHT22;6658;53.080;7.428;2023-03-08T10:43:01;4.10;99.90
13186;DHT22;6658;53.080;7.428;2023-03-08T10:45:28;4.40;99.90
13186;DHT22;6658;53.080;7.428;2023-03-08T10:47:56;4.60;99.90
13186;DHT22;6658;53.080;7.428;2023-03-08T10:50:30;4.90;99.90
13186;DHT22;6658;53.080;7.428;2023-03-08T10:53:08;5.10;99.90
13186;DHT22;6658;53.080;7.428;2023-03-08T10:55:45;5.00;99.90
13186;DHT22;6658;53.080;7.428;2023-03-08T10:58:34;4.80;99.90
13186;DHT22;6658;53.080;7.428;2023-03-08T11:01:28;4.80;99.90
13186;DHT22;6658;53.080;7.428;2023-03-08T11:04:14;5.20;99.90
13186;DHT22;6658;53.080;7.428;2023-03-08T11:06:40;5.30;99.90
13186;DHT22;6658;53.080;7.428;2023-03-08T11:11:53;5.10;99.90
13186;DHT22;6658;53.080;7.428;2023-03-08T11:14:20;5.10;99.90
13186;DHT22;6658;53.080;7.428;2023-03-08T11:17:04;5.30;99.90
13186;DHT22;6658;53.080;7.428;2023-03-08T11:25:37;4.60;99.90
13186;DHT22;6658;53.080;7.428;2023-03-08T11:34:05;5.20;99.90
13186;DHT22;6658;53.080;7.428;2023-03-08T11:37:01;5.10;99.90
13186;DHT22;6658;53.080;7.428;2023-03-08T11:39:38;5.30;99.90
13186;DHT22;6658;53.080;7.428;2023-03-08T11:45:19;5.20;99.90
13186;DHT22;6658;53.080;7.428;2023-03-08T11:50:41;5.00;99.90
13186;DHT22;6658;53.080;7.428;2023-03-08T12:01:26;4.70;99.90
13186;DHT22;6658;53.080;7.428;2023-03-08T12:03:55;4.70;99.90
13186;DHT22;6658;53.080;7.428;2023-03-08T12:06:34;5.00;99.90
13186;DHT22;6658;53.080;7.428;2023-03-08T12:09:35;5.00;99.90
13186;DHT22;6658;53.080;7.428;2023-03-08T12:12:15;5.10;99.90
13186;DHT22;6658;53.080;7.428;2023-03-08T12:14:56;5.30;99.90
13186;DHT22;6658;53.080;7.428;2023-03-08T12:17:31;5.10;99.90
13186;DHT22;6658;53.080;7.428;2023-03-08T12:19:59;5.20;99.90
13186;DHT22;6658;53.080;7.428;2023-03-08T12:22:49;5.10;99.90
13186;DHT22;6658;53.080;7.428;2023-03-08T12:25:31;5.30;99.90
13186;DHT22;6658;53.080;7.428;2023-03-08T12:28:11;5.20;99.90
13186;DHT22;6658;53.080;7.428;2023-03-08T12:33:10;5.20;99.90
13186;DHT22;6658;53.080;7.428;2023-03-08T12:35:48;5.20;99.90
13186;DHT22;6658;53.080;7.428;2023-03-08T12:40:42;5.10;99.90
13186;DHT22;6658;53.080;7.428;2023-03-08T12:43:10;5.10;99.90
13186;DHT22;6658;53.080;7.428;2023-03-08T12:45:38;5.10;99.90
13186;DHT22;6658;53.080;7.428;2023-03-08T12:50:35;5.00;99.90
13186;DHT22;6658;53.080;7.428;2023-03-08T13:03:57;5.40;99.90
13186;DHT22;6658;53.080;7.428;2023-03-08T13:09:17;5.40;99.90
13186;DHT22;6658;53.080;7.428;2023-03-08T13:12:37;5.30;99.90
13186;DHT22;6658;53.080;7.428;2023-03-08T13:14:40;5.30;99.90
13186;DHT22;6658;53.080;7.428;2023-03-08T13:20:21;5.70;99.90
13186;DHT22;6658;53.080;7.428;2023-03-08T13:23:05;5.90;99.90
13186;DHT22;6658;53.080;7.428;2023-03-08T13:28:14;5.70;99.90
13186;DHT22;6658;53.080;7.428;2023-03-08T13:31:00;5.50;99.90
13186;DHT22;6658;53.080;7.428;2023-03-08T13:33:56;5.40;99.90
13186;DHT22;6658;53.080;7.428;2023-03-08T13:36:31;5.40;99.90
13186;DHT22;6658;53.080;7.428;2023-03-08T13:41:38;5.30;99.90
13186;DHT22;6658;53.080;7.428;2023-03-08T13:46:43;5.20;99.90
13186;DHT22;6658;53.080;7.428;2023-03-08T13:49:31;5.20;99.90
13186;DHT22;6658;53.080;7.428;2023-03-08T13:52:03;5.30;99.90
13186;DHT22;6658;53.080;7.428;2023-03-08T13:54:35;5.10;99.90
13186;DHT22;6658;53.080;7.428;2023-03-08T13:57:04;5.10;99.90
13186;DHT22;6658;53.080;7.428;2023-03-08T13:59:31;5.00;99.90
13186;DHT22;6658;53.080;7.428;2023-03-08T14:01:59;5.00;99.90
13186;DHT22;6658;53.080;7.428;2023-03-08T14:04:27;5.00;99.90
13186;DHT22;6658;53.080;7.428;2023-03-08T14:06:57;5.10;99.90
13186;DHT22;6658;53.080;7.428;2023-03-08T14:09:23;5.20;99.90
13186;DHT22;6658;53.080;7.428;2023-03-08T14:11:58;5.20;99.90
13186;DHT22;6658;53.080;7.428;2023-03-08T14:14:32;5.20;99.90
13186;DHT22;6658;53.080;7.428;2023-03-08T14:16:59;5.20;99.90
13186;DHT22;6658;53.080;7.428;2023-03-08T14:19:38;5.20;99.90
13186;DHT22;6658;53.080;7.428;2023-03-08T14:22:14;5.20;99.90
13186;DHT22;6658;53.080;7.428;2023-03-08T14:24:47;5.20;99.90
13186;DHT22;6658;53.080;7.428;2023-03-08T14:29:39;5.20;99.90
13186;DHT22;6658;53.080;7.428;2023-03-08T14:34:46;5.20;99.90
13186;DHT22;6658;53.080;7.428;2023-03-08T14:39:46;5.10;99.90
13186;DHT22;6658;53.080;7.428;2023-03-08T14:42:34;5.20;99.90
13186;DHT22;6658;53.080;7.428;2023-03-08T14:45:04;5.20;99.90
13186;DHT22;6658;53.080;7.428;2023-03-08T14:47:32;5.20;99.90
13186;DHT22;6658;53.080;7.428;2023-03-08T14:50:04;5.20;99.90
13186;DHT22;6658;53.080;7.428;2023-03-08T14:52:47;5.20;99.90
13186;DHT22;6658;53.080;7.428;2023-03-08T14:55:26;5.10;99.90
13186;DHT22;6658;53.080;7.428;2023-03-08T14:57:54;5.10;99.90
13186;DHT22;6658;53.080;7.428;2023-03-08T15:00:21;5.10;99.90
13186;DHT22;6658;53.080;7.428;2023-03-08T15:02:47;5.00;99.90
13186;DHT22;6658;53.080;7.428;2023-03-08T15:05:15;4.90;99.90
13186;DHT22;6658;53.080;7.428;2023-03-08T15:07:42;4.90;99.90
13186;DHT22;6658;53.080;7.428;2023-03-08T15:10:25;4.80;99.90
13186;DHT22;6658;53.080;7.428;2023-03-08T15:12:52;4.80;99.90
13186;DHT22;6658;53.080;7.428;2023-03-08T15:15:18;4.80;99.90
13186;DHT22;6658;53.080;7.428;2023-03-08T15:17:43;4.90;99.90
13186;DHT22;6658;53.080;7.428;2023-03-08T15:20:11;4.90;99.90
13186;DHT22;6658;53.080;7.428;2023-03-08T15:22:48;5.00;99.90
13186;DHT22;6658;53.080;7.428;2023-03-08T15:25:26;5.00;99.90
13186;DHT22;6658;53.080;7.428;2023-03-08T15:27:52;5.00;99.90
13186;DHT22;6658;53.080;7.428;2023-03-08T15:30:21;4.90;99.90
13186;DHT22;6658;53.080;7.428;2023-03-08T15:32:47;4.90;99.90
13186;DHT22;6658;53.080;7.428;2023-03-08T15:35:13;4.80;99.90
13186;DHT22;6658;53.080;7.428;2023-03-08T15:37:40;4.80;99.90
13186;DHT22;6658;53.080;7.428;2023-03-08T15:40:09;4.90;99.90
13186;DHT22;6658;53.080;7.428;2023-03-08T15:42:35;5.00;99.90
13186;DHT22;6658;53.080;7.428;2023-03-08T15:45:01;4.90;99.90
13186;DHT22;6658;53.080;7.428;2023-03-08T15:47:27;4.90;99.90
13186;DHT22;6658;53.080;7.428;2023-03-08T15:49:53;4.80;99.90
13186;DHT22;6658;53.080;7.428;2023-03-08T15:52:18;4.80;99.90
13186;DHT22;6658;53.080;7.428;2023-03-08T15:54:44;4.70;99.90
13186;DHT22;6658;53.080;7.428;2023-03-08T15:57:13;4.70;99.90
13186;DHT22;6658;53.080;7.428;2023-03-08T15:59:39;4.70;99.90
13186;DHT22;6658;53.080;7.428;2023-03-08T16:02:05;4.60;99.90
13186;DHT22;6658;53.080;7.428;2023-03-08T16:04:31;4.60;99.90
13186;DHT22;6658;53.080;7.428;2023-03-08T16:06:57;4.60;99.90
13186;DHT22;6658;53.080;7.428;2023-03-08T16:09:23;4.60;99.90
13186;DHT22;6658;53.080;7.428;2023-03-08T16:11:48;4.60;99.90
13186;DHT22;6658;53.080;7.428;2023-03-08T16:14:14;4.60;99.90
13186;DHT22;6658;53.080;7.428;2023-03-08T16:16:43;4.50;99.90
13186;DHT22;6658;53.080;7.428;2023-03-08T16:19:09;4.50;99.90
13186;DHT22;6658;53.080;7.428;2023-03-08T16:21:34;4.50;99.90
13186;DHT22;6658;53.080;7.428;2023-03-08T16:24:00;4.50;99.90
13186;DHT22;6658;53.080;7.428;2023-03-08T16:26:27;4.40;99.90
13186;DHT22;6658;53.080;7.428;2023-03-08T16:28:54;4.40;99.90
13186;DHT22;6658;53.080;7.428;2023-03-08T16:31:20;4.40;99.90
13186;DHT22;6658;53.080;7.428;2023-03-08T16:33:47;4.40;99.90
13186;DHT22;6658;53.080;7.428;2023-03-08T16:36:13;4.30;99.90
13186;DHT22;6658;53.080;7.428;2023-03-08T16:38:39;4.30;99.90
13186;DHT22;6658;53.080;7.428;2023-03-08T16:41:06;4.30;99.90
13186;DHT22;6658;53.080;7.428;2023-03-08T16:43:31;4.30;99.90
13186;DHT22;6658;53.080;7.428;2023-03-08T16:45:59;4.20;99.90
13186;DHT22;6658;53.080;7.428;2023-03-08T16:48:25;4.20;99.90
13186;DHT22;6658;53.080;7.428;2023-03-08T16:50:58;4.20;99.90
13186;DHT22;6658;53.080;7.428;2023-03-08T16:53:25;4.20;99.90
13186;DHT22;6658;53.080;7.428;2023-03-08T16:55:51;4.00;99.90
13186;DHT22;6658;53.080;7.428;2023-03-08T16:58:18;4.10;99.90
13186;DHT22;6658;53.080;7.428;2023-03-08T17:00:44;4.10;99.90
13186;DHT22;6658;53.080;7.428;2023-03-08T17:03:10;4.00;99.90
13186;DHT22;6658;53.080;7.428;2023-03-08T17:05:41;4.00;99.90
13186;DHT22;6658;53.080;7.428;2023-03-08T17:08:09;3.90;99.90
13186;DHT22;6658;53.080;7.428;2023-03-08T17:10:41;3.90;99.90
13186;DHT22;6658;53.080;7.428;2023-03-08T17:13:07;3.90;99.90
13186;DHT22;6658;53.080;7.428;2023-03-08T17:15:41;3.80;99.90
13186;DHT22;6658;53.080;7.428;2023-03-08T17:18:07;3.80;99.90
13186;DHT22;6658;53.080;7.428;2023-03-08T17:20:36;3.70;99.90
13186;DHT22;6658;53.080;7.428;2023-03-08T17:23:02;3.70;99.90
13186;DHT22;6658;53.080;7.428;2023-03-08T17:25:28;3.60;99.90
13186;DHT22;6658;53.080;7.428;2023-03-08T17:27:54;3.60;99.90
13186;DHT22;6658;53.080;7.428;2023-03-08T17:30:19;3.50;99.90